Time;durP1;ratioP1;P1;durP2;ratioP2;P2;SDS_P1;SDS_P2;PMS_P1;PMS_P2;Temp;Humidity;BMP_temperature;BMP_pressure;BME280_temperature;BME280_humidity;BME280_pressure;Samples;Min_cycle;Max_cycle;Signal;HPM_P1;HPM_P2
2022/09/13 00:01:08;;;;;;;18.02;12.85;;;22.50;99.90;;;23.00;75.35;100871.88;5115969;28;20043;-77
2022/09/13 00:03:36;;;;;;;19.17;14.50;;;22.50;99.90;;;22.95;72.96;100867.69;5115843;28;20048;-77
2022/09/13 00:06:12;;;;;;;16.25;14.13;;;22.40;99.90;;;22.97;72.02;100861.25;5116050;28;20438;-77
2022/09/13 00:08:41;;;;;;;18.05;14.50;;;22.40;99.90;;;23.05;71.60;100869.78;5115746;28;20050;-77
2022/09/13 00:11:17;;;;;;;15.68;14.05;;;22.50;99.90;;;23.07;71.27;100867.84;5115853;28;20472;-76
2022/09/13 00:13:45;;;;;;;18.50;13.70;;;22.50;99.90;;;23.11;71.21;100868.59;5116259;28;20078;-76
2022/09/13 00:16:18;;;;;;;15.32;13.68;;;22.60;99.90;;;23.10;71.22;100873.09;5116142;28;20085;-78
2022/09/13 00:18:47;;;;;;;16.15;13.80;;;22.50;99.90;;;23.11;71.79;100869.44;5115859;28;20126;-77
2022/09/13 00:21:20;;;;;;;18.55;13.70;;;22.60;99.90;;;23.11;71.93;100865.88;5115639;28;20357;-76
2022/09/13 00:23:51;;;;;;;15.13;13.50;;;22.50;99.90;;;23.14;71.89;100871.09;5115529;28;20392;-77
2022/09/13 00:26:23;;;;;;;16.20;12.70;;;22.60;99.90;;;23.17;72.12;100868.25;5115147;28;20057;-75
2022/09/13 00:28:52;;;;;;;16.02;13.57;;;22.60;99.90;;;23.20;72.08;100873.47;5115366;28;20051;-77
2022/09/13 00:31:24;;;;;;;15.33;12.87;;;22.60;99.90;;;23.23;72.65;100865.19;5115568;28;20087;-77
2022/09/13 00:33:52;;;;;;;14.25;12.75;;;22.70;99.90;;;23.19;73.01;100872.59;5115024;28;20047;-77
2022/09/13 00:36:22;;;;;;;15.90;12.75;;;22.60;99.90;;;23.24;73.24;100872.34;5115171;28;20081;-76
2022/09/13 00:38:50;;;;;;;14.20;12.80;;;22.60;99.90;;;23.21;73.57;100869.78;5115139;28;20596;-77
2022/09/13 00:41:20;;;;;;;14.52;13.02;;;22.60;99.90;;;23.20;73.70;100868.94;5115382;28;20035;-77
2022/09/13 00:43:52;;;;;;;15.88;13.48;;;22.60;99.90;;;23.18;73.08;100872.69;5115255;28;20072;-77
2022/09/13 00:46:29;;;;;;;16.38;12.80;;;22.60;99.90;;;23.35;73.16;100878.03;5115341;28;20378;-77
2022/09/13 00:49:04;;;;;;;14.32;12.93;;;22.70;99.90;;;23.46;72.99;100880.97;5115391;28;20075;-77
2022/09/13 00:51:33;;;;;;;15.18;13.70;;;22.90;99.90;;;23.25;73.46;100865.97;5114930;28;20122;-77
2022/09/13 00:54:03;;;;;;;14.02;12.60;;;22.80;99.90;;;23.18;74.21;100875.38;5115166;28;20130;-76
2022/09/13 00:56:36;;;;;;;14.20;12.77;;;22.70;99.90;;;23.05;74.21;100858.97;5115179;28;20501;-76
2022/09/13 00:59:10;;;;;;;15.02;13.43;;;22.60;99.90;;;23.22;73.57;100868.84;5114847;28;20155;-77
2022/09/13 01:01:44;;;;;;;15.20;13.13;;;22.60;99.90;;;23.16;73.70;100875.47;5115172;28;20093;-77
2022/09/13 01:04:13;;;;;;;14.57;13.07;;;22.60;99.90;;;23.17;74.08;100879.88;5114740;28;20101;-76
2022/09/13 01:06:43;;;;;;;13.52;12.23;;;22.60;99.90;;;23.22;73.77;100879.66;5114680;28;20048;-77
2022/09/13 01:09:12;;;;;;;15.68;13.27;;;22.70;99.90;;;23.21;74.20;100870.66;5114714;28;20063;-77
2022/09/13 01:11:47;;;;;;;18.45;12.95;;;22.70;99.90;;;23.28;74.82;100876.59;5115117;28;20069;-77
2022/09/13 01:14:18;;;;;;;15.00;12.70;;;22.70;99.90;;;23.26;74.49;100873.13;5114654;28;20048;-77
2022/09/13 01:16:47;;;;;;;14.75;13.15;;;22.70;99.90;;;23.25;74.55;100876.75;5114764;28;20039;-77
2022/09/13 01:19:16;;;;;;;14.38;12.32;;;22.70;99.90;;;23.01;74.40;100838.56;5113771;28;20446;-78
2022/09/13 01:22:33;;;;;;;14.13;12.63;;;22.60;99.90;;;23.12;74.37;100870.31;5114286;28;20122;-76
2022/09/13 01:25:53;;;;;;;16.48;12.05;;;22.60;99.90;;;23.21;74.36;100873.38;5094338;28;20467;-77
2022/09/13 01:29:17;;;;;;;13.35;11.95;;;22.60;99.90;;;23.19;74.83;100866.31;5070640;28;20400;-76
2022/09/13 01:31:54;;;;;;;13.93;11.30;;;22.70;99.90;;;23.16;75.79;100861.97;5099135;28;20058;-77
2022/09/13 01:34:35;;;;;;;17.42;12.35;;;22.70;99.90;;;23.08;76.12;100864.22;5114171;28;20101;-77
2022/09/13 01:37:31;;;;;;;15.15;12.98;;;22.50;99.90;;;22.88;75.87;100856.34;5113887;28;20043;-77
2022/09/13 01:40:10;;;;;;;15.43;12.90;;;22.30;99.90;;;22.81;76.28;100865.75;5114095;28;20044;-77
2022/09/13 01:43:01;;;;;;;15.35;12.55;;;22.30;99.90;;;22.88;77.01;100856.34;5114051;27;20043;-77
2022/09/13 01:45:38;;;;;;;14.20;12.80;;;22.30;99.90;;;22.91;77.11;100853.50;5113683;28;20044;-75
2022/09/13 01:48:16;;;;;;;15.45;13.25;;;22.40;99.90;;;22.89;77.59;100847.31;5113697;28;20057;-77
2022/09/13 01:50:51;;;;;;;14.05;12.63;;;22.40;99.90;;;22.78;77.62;100847.06;5113510;28;20039;-77
2022/09/13 01:53:29;;;;;;;15.25;13.65;;;22.30;99.90;;;22.89;76.93;100841.03;5113814;28;20043;-77
2022/09/13 01:56:03;;;;;;;15.98;14.20;;;22.30;99.90;;;22.97;76.78;100841.50;5114232;28;20416;-76
2022/09/13 01:58:40;;;;;;;17.05;13.15;;;22.40;99.90;;;22.96;77.17;100832.53;5114043;28;20058;-76
2022/09/13 02:01:15;;;;;;;15.13;13.25;;;22.40;99.90;;;22.97;77.07;100836.97;5113651;28;20055;-76
2022/09/13 02:03:54;;;;;;;15.30;13.30;;;22.40;99.90;;;23.02;77.40;100842.09;5113936;28;20127;-77
2022/09/13 02:06:27;;;;;;;14.13;12.70;;;22.50;99.90;;;22.97;77.40;100817.22;5114143;28;20051;-76
2022/09/13 02:08:59;;;;;;;13.85;12.45;;;22.60;99.90;;;23.05;77.85;100839.25;5113610;28;20066;-76
2022/09/13 02:11:28;;;;;;;15.48;13.18;;;22.60;99.90;;;23.04;77.73;100837.47;5113744;28;20058;-76
2022/09/13 02:14:02;;;;;;;14.57;13.07;;;22.50;99.90;;;23.04;77.88;100840.19;5114012;28;20093;-76
2022/09/13 02:16:36;;;;;;;14.90;12.75;;;22.50;99.90;;;23.04;77.72;100842.88;5113987;28;20054;-76
2022/09/13 02:19:12;;;;;;;16.42;14.07;;;22.50;99.90;;;23.05;77.35;100841.94;5113487;28;20089;-76
2022/09/13 02:21:44;;;;;;;14.00;12.43;;;22.50;99.90;;;23.04;77.24;100840.19;5113729;28;20052;-77
2022/09/13 02:24:18;;;;;;;14.40;13.00;;;22.50;99.90;;;23.07;77.33;100848.97;5113398;28;20485;-76
2022/09/13 02:26:51;;;;;;;15.65;13.52;;;22.50;99.90;;;23.04;77.19;100848.28;5113980;28;20129;-76
2022/09/13 02:29:24;;;;;;;15.60;12.98;;;22.50;99.90;;;23.04;77.12;100856.38;5112537;28;20043;-76
2022/09/13 02:31:58;;;;;;;15.30;12.30;;;22.50;99.90;;;23.05;77.38;100850.03;5113301;28;20128;-76
2022/09/13 02:34:35;;;;;;;13.93;12.07;;;22.40;99.90;;;23.04;77.90;100845.56;5114038;28;20078;-76
2022/09/13 02:37:06;;;;;;;12.85;11.55;;;22.50;99.90;;;23.01;78.41;100851.16;5113399;28;20400;-76
2022/09/13 02:39:38;;;;;;;13.23;11.55;;;22.50;99.90;;;22.95;78.83;100851.50;5113511;28;20044;-77
2022/09/13 02:42:12;;;;;;;13.00;11.48;;;22.40;99.90;;;22.84;79.25;100826.94;5112127;28;20051;-76
2022/09/13 02:44:44;;;;;;;16.50;13.50;;;22.40;99.90;;;22.79;78.83;100837.09;5113383;28;20054;-76
2022/09/13 02:47:29;;;;;;;15.88;12.95;;;22.30;99.90;;;22.67;78.50;100845.88;5113348;28;20054;-76
2022/09/13 02:50:17;;;;;;;16.20;14.50;;;22.20;99.90;;;22.59;78.45;100845.44;5113566;28;20058;-76
2022/09/13 02:52:53;;;;;;;17.88;15.20;;;22.10;99.90;;;22.68;77.98;100847.63;5113591;28;20040;-76
2022/09/13 02:55:30;;;;;;;16.05;14.32;;;22.10;99.90;;;22.69;78.06;100847.53;5113220;28;20039;-75
2022/09/13 02:58:09;;;;;;;16.48;14.77;;;22.20;99.90;;;22.73;78.23;100850.94;5112987;28;20136;-76
2022/09/13 03:00:37;;;;;;;19.23;14.15;;;22.20;99.90;;;22.77;78.29;100849.81;5112739;28;20048;-76
2022/09/13 03:03:12;;;;;;;15.23;13.77;;;22.20;99.90;;;22.75;78.36;100849.91;5112575;28;20119;-76
2022/09/13 03:05:42;;;;;;;17.35;14.00;;;22.20;99.90;;;22.74;78.73;100858.97;5112720;28;20469;-77
2022/09/13 03:08:14;;;;;;;17.08;14.15;;;22.20;99.90;;;22.73;78.82;100850.94;5112820;28;20400;-77
2022/09/13 03:10:55;;;;;;;14.80;13.40;;;22.20;99.90;;;22.72;79.24;100847.38;5113129;28;20052;-75
2022/09/13 03:14:08;;;;;;;17.08;14.30;;;22.20;99.90;;;22.73;79.50;100853.63;5113412;28;20050;-76
2022/09/13 03:17:01;;;;;;;15.70;14.20;;;22.20;99.90;;;22.76;79.44;100856.19;5112834;28;20039;-76
2022/09/13 03:19:57;;;;;;;15.23;13.63;;;22.20;99.90;;;22.79;79.18;100850.59;5112876;28;20113;-76
2022/09/13 03:23:07;;;;;;;15.02;13.52;;;22.20;99.90;;;22.74;79.07;100856.25;5112788;28;20050;-76
2022/09/13 03:26:04;;;;;;;13.77;12.38;;;22.20;99.90;;;22.71;80.19;100853.72;5112971;28;20485;-76
2022/09/13 03:28:39;;;;;;;13.52;12.13;;;22.20;99.90;;;22.69;80.24;100860.13;5113254;28;20050;-76
2022/09/13 03:31:15;;;;;;;14.15;12.18;;;22.10;99.90;;;22.68;80.44;100858.41;5112683;28;20040;-76
2022/09/13 03:33:56;;;;;;;13.65;12.25;;;22.10;99.90;;;22.68;80.73;100856.59;5112716;28;20050;-76
2022/09/13 03:36:33;;;;;;;14.63;13.18;;;22.20;99.90;;;22.61;80.46;100860.56;5112874;28;20044;-75
2022/09/13 03:39:12;;;;;;;16.67;12.70;;;22.10;99.90;;;22.55;80.20;100865.41;5112602;28;20618;-76
2022/09/13 03:41:47;;;;;;;15.13;11.98;;;22.00;99.90;;;22.62;80.80;100865.00;5114614;28;20053;-76
2022/09/13 03:44:19;;;;;;;13.73;12.32;;;22.10;99.90;;;22.68;80.67;100863.81;5116870;28;20055;-76
2022/09/13 03:46:52;;;;;;;13.65;12.23;;;22.10;99.90;;;22.65;80.54;100867.53;5116399;28;20400;-76
2022/09/13 03:49:22;;;;;;;14.45;11.95;;;22.10;99.90;;;22.61;81.32;100867.81;5116262;28;20051;-77
2022/09/13 03:51:51;;;;;;;;;;;22.00;99.90;;;22.45;81.33;100846.16;5116566;28;20067;-74
2022/09/13 03:54:24;;;;;;;14.93;13.32;;;22.10;99.90;;;22.54;81.44;100861.81;5116171;28;19924;-76
2022/09/13 03:57:11;;;;;;;14.02;12.70;;;22.10;99.90;;;22.51;81.13;100866.50;5116116;28;20046;-76
2022/09/13 03:59:44;;;;;;;15.10;13.50;;;22.00;99.90;;;22.50;80.87;100865.63;5116446;28;20047;-77
2022/09/13 04:02:13;;;;;;;14.20;12.75;;;21.90;99.90;;;22.47;81.30;100859.53;5115823;28;20048;-76
2022/09/13 04:04:43;;;;;;;14.52;13.00;;;21.90;99.90;;;22.43;81.69;100862.38;5115990;28;20063;-75
2022/09/13 04:07:14;;;;;;;13.60;12.02;;;21.90;99.90;;;22.37;81.43;100859.16;5115712;28;20040;-76
2022/09/13 04:09:44;;;;;;;15.20;12.82;;;21.80;99.90;;;22.30;81.54;100858.59;5115667;28;20043;-75
2022/09/13 04:12:14;;;;;;;13.57;12.27;;;21.70;99.90;;;22.19;82.10;100855.59;5115580;28;20484;-76
2022/09/13 04:14:43;;;;;;;13.90;12.60;;;21.70;99.90;;;22.14;82.46;100857.66;5115834;28;20040;-76
2022/09/13 04:17:11;;;;;;;11.07;9.57;;;21.60;99.90;;;22.25;82.38;100865.19;5115551;28;20035;-76
2022/09/13 04:19:40;;;;;;;15.50;13.60;;;21.70;99.90;;;22.30;81.56;100874.78;5115594;28;20048;-76
2022/09/13 04:22:08;;;;;;;16.52;14.82;;;21.70;99.90;;;22.27;81.36;100876.75;5115510;28;20058;-76
2022/09/13 04:24:37;;;;;;;17.08;15.05;;;21.70;99.90;;;22.22;81.15;100876.13;5115841;28;20549;-76
2022/09/13 04:27:07;;;;;;;18.90;16.98;;;21.70;99.90;;;22.27;81.05;100874.94;5115743;28;20044;-76
2022/09/13 04:29:35;;;;;;;19.92;17.95;;;21.70;99.90;;;22.23;80.88;100881.44;5115525;28;20055;-76
2022/09/13 04:32:04;;;;;;;19.27;17.27;;;21.70;99.90;;;22.25;80.55;100878.66;5115895;28;20043;-74
2022/09/13 04:34:32;;;;;;;17.98;16.20;;;21.70;99.90;;;22.29;80.42;100880.25;5115148;28;20073;-76
2022/09/13 04:37:00;;;;;;;18.90;16.92;;;21.70;99.90;;;22.31;80.44;100883.75;5115012;28;20035;-76
2022/09/13 04:39:29;;;;;;;20.30;18.10;;;21.80;99.90;;;22.36;80.16;100887.94;5115340;28;20036;-76
2022/09/13 04:41:58;;;;;;;20.98;17.73;;;21.80;99.90;;;22.38;80.14;100890.53;5115529;28;20044;-76
2022/09/13 04:44:28;;;;;;;15.82;14.25;;;21.80;99.90;;;22.38;80.14;100885.16;5114944;28;20047;-76
2022/09/13 04:46:56;;;;;;;12.35;11.05;;;21.80;99.90;;;22.34;80.39;100891.66;5115035;28;20057;-76
2022/09/13 04:49:25;;;;;;;10.63;9.15;;;21.80;99.90;;;22.30;80.81;100890.94;5115083;28;20109;-75
2022/09/13 04:51:53;;;;;;;12.48;11.18;;;21.80;99.90;;;22.32;80.68;100890.84;5114574;28;20043;-76
2022/09/13 04:54:22;;;;;;;14.85;13.13;;;21.80;99.90;;;22.36;80.72;100898.72;5114451;28;20040;-76
2022/09/13 04:56:50;;;;;;;19.52;17.55;;;21.80;99.90;;;22.39;80.47;100890.47;5115106;28;20056;-76
2022/09/13 04:59:18;;;;;;;21.08;18.63;;;21.90;99.90;;;22.41;80.45;100893.94;5114827;28;20500;-76
2022/09/13 05:01:47;;;;;;;17.65;15.95;;;21.90;99.90;;;22.33;80.73;100893.50;5115009;28;20044;-76
2022/09/13 05:04:16;;;;;;;14.83;13.23;;;21.90;99.90;;;22.33;80.96;100901.59;5114752;28;20100;-75
2022/09/13 05:06:45;;;;;;;14.35;13.05;;;21.80;99.90;;;22.28;81.05;100898.25;5114815;28;20277;-76
2022/09/13 05:09:15;;;;;;;15.40;13.32;;;21.80;99.90;;;22.22;81.56;100890.47;5114453;28;20067;-76
2022/09/13 05:11:43;;;;;;;15.80;12.18;;;21.70;99.90;;;22.25;81.58;100897.53;5114283;28;20043;-76
2022/09/13 05:14:12;;;;;;;15.02;13.52;;;21.70;99.90;;;22.18;81.91;100888.88;5114944;28;20118;-75
2022/09/13 05:16:41;;;;;;;16.42;14.70;;;21.70;99.90;;;22.24;81.59;100893.09;5114784;28;20036;-76
2022/09/13 05:19:12;;;;;;;15.50;13.90;;;21.70;99.90;;;22.22;81.75;100893.16;5114096;28;20051;-76
2022/09/13 05:21:41;;;;;;;15.80;14.23;;;21.70;99.90;;;22.21;81.65;100894.13;5114126;28;20054;-77
2022/09/13 05:24:09;;;;;;;17.40;14.75;;;21.70;99.90;;;22.20;81.62;100888.81;5114623;28;20032;-76
2022/09/13 05:26:38;;;;;;;18.80;16.25;;;21.60;99.90;;;22.17;82.11;100889.84;5114076;28;20050;-76
2022/09/13 05:29:06;;;;;;;20.67;17.30;;;21.60;99.90;;;22.16;82.22;100895.31;5113941;28;20047;-76
2022/09/13 05:31:36;;;;;;;18.75;16.77;;;21.60;99.90;;;22.07;82.13;100888.56;5114091;28;20063;-76
2022/09/13 05:34:09;;;;;;;21.45;19.25;;;21.50;99.90;;;22.05;82.11;100898.56;5113860;28;20050;-77
2022/09/13 05:36:39;;;;;;;23.88;20.15;;;21.50;99.90;;;22.04;82.02;100896.81;5113780;28;20040;-77
2022/09/13 05:39:13;;;;;;;20.20;18.10;;;21.50;99.90;;;22.22;81.94;100905.78;5113981;28;20039;-76
2022/09/13 05:42:01;;;;;;;19.42;17.50;;;21.60;99.90;;;22.25;81.69;100901.09;5113820;28;20370;-76
2022/09/13 05:44:29;;;;;;;20.00;18.00;;;21.70;99.90;;;22.21;81.80;100904.91;5113806;28;20446;-76
2022/09/13 05:46:57;;;;;;;20.33;18.20;;;21.70;99.90;;;22.21;81.99;100907.59;5113382;28;20139;-76
2022/09/13 05:49:26;;;;;;;20.90;18.55;;;21.70;99.90;;;22.25;82.09;100908.31;5113765;28;20052;-76
2022/09/13 05:51:55;;;;;;;21.08;18.85;;;21.70;99.90;;;22.32;82.01;100907.91;5113846;28;20044;-76
2022/09/13 05:54:24;;;;;;;21.90;19.58;;;21.70;99.90;;;22.33;82.02;100911.47;5114180;28;20427;-76
2022/09/13 05:56:56;;;;;;;22.63;19.40;;;21.80;99.90;;;22.38;81.97;100907.59;5114198;28;20043;-76
2022/09/13 05:59:24;;;;;;;19.02;17.08;;;21.80;99.90;;;22.42;81.93;100911.00;5113888;28;20075;-76
2022/09/13 06:01:52;;;;;;;20.42;17.42;;;21.90;99.90;;;22.45;82.41;100908.16;5113508;28;20043;-76
2022/09/13 06:04:21;;;;;;;18.98;16.92;;;21.90;99.90;;;22.49;82.24;100911.56;5113274;28;20225;-76
2022/09/13 06:06:49;;;;;;;17.75;15.60;;;22.00;99.90;;;22.57;82.01;100909.38;5113450;28;20080;-76
2022/09/13 06:09:18;;;;;;;21.52;17.38;;;22.00;99.90;;;22.64;82.07;100910.78;5113897;28;20059;-76
2022/09/13 06:11:47;;;;;;;18.97;17.13;;;22.10;99.90;;;22.75;82.10;100924.53;5113832;28;20050;-76
2022/09/13 06:14:15;;;;;;;18.40;16.70;;;22.20;99.90;;;22.85;81.85;100932.06;5112311;28;20046;-76
2022/09/13 06:16:43;;;;;;;18.40;16.25;;;22.30;99.90;;;22.97;81.64;100925.16;5113543;28;20506;-76
2022/09/13 06:19:11;;;;;;;18.23;16.42;;;22.40;99.90;;;23.14;81.09;100928.66;5113492;28;20100;-77
2022/09/13 06:21:40;;;;;;;18.80;16.85;;;22.60;99.90;;;23.25;80.69;100933.44;5113797;28;20047;-77
2022/09/13 06:24:09;;;;;;;19.02;17.05;;;22.70;99.90;;;23.33;80.41;100933.06;5113515;28;20039;-76
2022/09/13 06:26:39;;;;;;;18.80;16.80;;;22.80;99.90;;;23.41;79.99;100926.28;5113547;28;20036;-76
2022/09/13 06:29:07;;;;;;;21.08;17.17;;;22.90;99.90;;;23.51;79.83;100926.63;5111975;28;20497;-76
2022/09/13 06:31:37;;;;;;;23.02;17.58;;;23.00;99.90;;;23.67;79.75;100925.69;5113361;28;20084;-77
2022/09/13 06:34:06;;;;;;;18.08;15.80;;;23.10;99.90;;;23.82;79.64;100924.78;5113082;28;20496;-77
2022/09/13 06:36:34;;;;;;;18.98;16.08;;;23.30;99.90;;;23.94;79.31;100929.47;5113481;28;20043;-77
2022/09/13 06:39:04;;;;;;;18.83;16.58;;;23.40;99.90;;;24.08;79.25;100924.16;5113296;28;20046;-76
2022/09/13 06:41:32;;;;;;;;;;;23.60;99.90;;;24.20;78.81;100922.56;5112640;28;20087;-77
2022/09/13 06:44:03;;;;;;;18.65;14.75;;;23.70;99.90;;;24.43;78.63;100934.72;5113245;28;19927;-77
2022/09/13 06:46:33;;;;;;;17.02;12.45;;;23.90;99.90;;;24.52;77.67;100937.72;5113023;28;20046;-77
2022/09/13 06:49:05;;;;;;;14.05;11.50;;;24.00;99.90;;;24.52;77.10;100920.63;5112671;28;20055;-77
2022/09/13 06:51:35;;;;;;;10.75;9.45;;;24.10;99.90;;;24.46;77.10;100918.28;5112941;28;20040;-76
2022/09/13 06:54:04;;;;;;;12.13;8.30;;;24.10;99.90;;;24.66;77.19;100936.88;5113097;28;20511;-77
2022/09/13 06:56:34;;;;;;;9.77;8.50;;;24.10;99.90;;;24.80;76.98;100934.22;5112998;28;20047;-76
2022/09/13 06:59:07;;;;;;;10.02;7.15;;;24.20;99.90;;;25.00;76.63;100947.38;5113327;28;20048;-77
2022/09/13 07:01:38;;;;;;;6.47;5.32;;;24.40;99.90;;;25.24;75.40;100945.81;5112680;28;20366;-76
2022/09/13 07:04:09;;;;;;;6.82;4.45;;;24.70;99.90;;;25.33;74.54;100933.53;5112917;28;20044;-77
2022/09/13 07:06:40;;;;;;;7.38;4.18;;;24.90;99.90;;;25.54;73.89;100943.03;5112683;28;20603;-77
2022/09/13 07:09:14;;;;;;;5.88;3.58;;;25.10;99.90;;;25.60;72.83;100942.63;5112715;28;20450;-77
2022/09/13 07:11:42;;;;;;;4.05;3.65;;;25.10;99.90;;;25.74;72.48;100943.47;5111584;28;20492;-77
2022/09/13 07:14:15;;;;;;;6.50;3.90;;;25.30;99.90;;;25.79;71.84;100938.59;5113116;28;20035;-78
2022/09/13 07:16:44;;;;;;;4.72;4.07;;;25.30;99.90;;;25.63;71.92;100943.28;5114884;28;20046;-78
2022/09/13 07:19:18;;;;;;;4.72;3.92;;;25.20;99.90;;;25.79;71.64;100944.03;5116592;28;20040;-78
2022/09/13 07:21:48;;;;;;;5.32;3.67;;;25.30;99.90;;;25.91;70.25;100947.75;5115573;28;20146;-77
2022/09/13 07:24:17;;;;;;;5.23;3.60;;;25.40;99.90;;;25.88;70.07;100951.53;5116598;28;20148;-77
2022/09/13 07:26:46;;;;;;;4.72;4.28;;;25.30;99.90;;;24.88;70.64;100850.69;5116643;28;20122;-78
2022/09/13 07:29:21;;;;;;;4.50;3.80;;;25.00;99.90;;;25.52;70.52;100951.25;5117312;28;20039;-78
2022/09/13 07:31:53;;;;;;;6.63;4.38;;;25.00;99.90;;;25.37;71.10;100952.22;5116602;28;20505;-77
2022/09/13 07:34:23;;;;;;;4.40;4.00;;;25.00;99.90;;;25.36;71.21;100955.03;5116647;28;20100;-77
2022/09/13 07:36:52;;;;;;;5.57;3.78;;;24.90;99.90;;;25.30;71.31;100953.56;5116993;28;20047;-77
2022/09/13 07:39:20;;;;;;;4.45;3.47;;;24.90;99.90;;;25.12;71.43;100952.03;5116220;28;20116;-77
2022/09/13 07:41:50;;;;;;;6.82;3.97;;;24.80;99.90;;;25.05;72.21;100956.06;5116497;28;20043;-77
2022/09/13 07:44:21;;;;;;;7.72;3.83;;;24.60;99.90;;;25.03;72.55;100964.31;5116405;28;20052;-77
2022/09/13 07:46:50;;;;;;;8.00;4.25;;;24.60;99.90;;;24.98;72.79;100961.03;5116151;28;20118;-76
2022/09/13 07:49:19;;;;;;;6.60;3.90;;;24.60;99.90;;;24.47;72.78;100864.09;5116619;28;20051;-76
2022/09/13 07:51:50;;;;;;;6.22;3.83;;;24.60;99.90;;;25.10;73.37;100963.91;5116041;28;20046;-77
2022/09/13 07:54:19;;;;;;;8.55;3.45;;;24.60;99.90;;;25.19;73.74;100952.50;5116092;28;20078;-77
2022/09/13 07:56:50;;;;;;;8.68;3.92;;;24.80;99.90;;;25.38;73.06;100964.78;5116394;28;20439;-76
2022/09/13 07:59:20;;;;;;;4.75;3.20;;;24.90;99.90;;;25.11;72.50;100896.13;5116549;28;20054;-76
2022/09/13 08:01:50;;;;;;;9.30;3.33;;;25.10;99.90;;;25.67;71.80;100969.22;5114638;28;20044;-76
2022/09/13 08:04:24;;;;;;;4.82;3.05;;;25.20;99.90;;;25.72;70.93;100969.81;5116004;28;20047;-76
2022/09/13 08:06:53;;;;;;;10.10;3.30;;;25.30;99.90;;;25.62;70.21;100970.50;5116158;28;20491;-76
2022/09/13 08:09:21;;;;;;;7.75;3.88;;;25.30;99.90;;;25.53;70.40;100971.94;5115556;28;20035;-76
2022/09/13 08:11:51;;;;;;;5.85;3.45;;;25.10;99.90;;;25.73;70.84;100974.25;5115510;28;20400;-76
2022/09/13 08:14:23;;;;;;;5.15;3.47;;;25.30;99.90;;;25.94;68.89;100974.66;5115698;28;20036;-76
2022/09/13 08:16:55;;;;;;;3.85;2.83;;;25.50;99.90;;;25.70;67.67;100970.88;5115384;28;20046;-76
2022/09/13 08:19:23;;;;;;;3.53;3.22;;;25.40;99.90;;;25.84;67.49;100970.84;5114272;28;20062;-77
2022/09/13 08:21:52;;;;;;;4.25;3.28;;;25.40;99.90;;;25.68;67.19;100973.69;5115136;28;20052;-77
2022/09/13 08:24:21;;;;;;;4.75;3.15;;;25.20;99.90;;;25.45;67.48;100978.84;5115751;28;20130;-76
2022/09/13 08:26:50;;;;;;;4.60;3.78;;;25.00;99.90;;;25.27;68.71;100983.56;5115332;28;20031;-76
2022/09/13 08:29:21;;;;;;;5.03;3.92;;;24.90;99.90;;;25.20;69.98;100975.91;5115431;28;20062;-76
2022/09/13 08:31:49;;;;;;;4.32;3.50;;;24.70;99.90;;;25.46;69.37;100977.84;5115369;28;20413;-77
2022/09/13 08:34:20;;;;;;;4.57;3.63;;;25.00;99.90;;;25.54;68.12;100983.66;5115366;28;20052;-76
2022/09/13 08:36:48;;;;;;;;;;;25.10;99.90;;;25.54;67.32;100983.66;5116303;28;20126;-77
2022/09/13 08:39:16;;;;;;;3.63;3.22;;;25.20;99.90;;;25.65;67.40;100987.41;5115394;28;19938;-76
2022/09/13 08:42:10;;;;;;;4.80;3.13;;;25.20;99.90;;;25.66;67.22;100962.06;5115441;28;20047;-76
2022/09/13 08:44:45;;;;;;;5.32;3.20;;;25.30;99.90;;;25.87;65.97;100986.91;5113758;28;20382;-76
2022/09/13 08:47:34;;;;;;;3.75;3.08;;;25.40;99.90;;;25.88;65.90;100986.78;5115133;28;20062;-76
2022/09/13 08:50:14;;;;;;;3.45;2.85;;;25.40;99.90;;;25.54;66.33;100994.50;5115336;28;20500;-77
2022/09/13 08:53:08;;;;;;;3.35;2.78;;;25.20;99.90;;;25.70;66.60;100988.00;5115324;27;20097;-77
2022/09/13 08:55:48;;;;;;;4.25;2.90;;;25.20;99.90;;;25.48;66.79;100986.75;5115536;28;20036;-76
2022/09/13 08:58:48;;;;;;;5.70;2.97;;;25.20;99.90;;;25.55;66.32;100994.38;5114899;28;20045;-77
2022/09/13 09:01:34;;;;;;;4.78;2.95;;;25.20;99.90;;;25.70;66.07;100997.97;5115138;28;20136;-77
2022/09/13 09:04:12;;;;;;;3.42;2.50;;;25.30;99.90;;;25.65;66.25;100995.53;5115327;28;20048;-77
2022/09/13 09:06:42;;;;;;;6.30;3.42;;;25.20;99.90;;;25.64;65.63;100993.81;5115042;28;20035;-76
2022/09/13 09:09:16;;;;;;;5.20;2.97;;;25.20;99.90;;;25.74;66.47;100996.81;5114925;28;20048;-75
2022/09/13 09:11:53;;;;;;;3.50;2.97;;;25.30;99.90;;;25.97;67.15;100989.88;5114583;28;20146;-75
2022/09/13 09:14:30;;;;;;;8.50;3.30;;;25.50;99.90;;;26.15;65.73;100989.53;5113753;28;20048;-76
2022/09/13 09:17:03;;;;;;;5.50;2.50;;;25.70;99.90;;;26.21;64.82;100991.00;5114501;28;20044;-76
2022/09/13 09:19:39;;;;;;;4.38;2.67;;;25.80;99.90;;;26.11;64.78;100995.28;5115001;28;20054;-75
2022/09/13 09:22:16;;;;;;;4.07;2.30;;;25.70;99.90;;;26.19;64.36;100995.66;5114900;28;20044;-76
2022/09/13 09:24:48;;;;;;;3.72;2.35;;;25.80;99.90;;;26.24;63.70;100994.38;5114748;28;20065;-75
2022/09/13 09:27:19;;;;;;;5.28;2.67;;;25.90;99.90;;;26.28;64.07;100992.31;5114161;28;20465;-75
2022/09/13 09:29:52;;;;;;;6.28;2.55;;;25.90;99.90;;;26.35;63.52;100988.19;5114322;28;20463;-75
2022/09/13 09:32:51;;;;;;;4.10;2.30;;;26.00;99.90;;;26.42;63.28;100986.81;5114127;28;20041;-75
2022/09/13 09:35:36;;;;;;;3.45;2.30;;;26.00;99.90;;;26.64;63.31;100984.34;5113948;28;20044;-75
2022/09/13 09:38:32;;;;;;;5.47;2.72;;;26.20;99.90;;;26.60;62.13;100986.44;5114235;28;20054;-75
2022/09/13 09:41:05;;;;;;;7.55;2.63;;;26.20;99.90;;;26.55;62.32;100983.16;5112900;28;20416;-76
2022/09/13 09:43:44;;;;;;;5.20;2.58;;;26.20;99.90;;;26.46;61.93;100985.66;5114202;28;20051;-76
2022/09/13 09:46:16;;;;;;;4.63;2.38;;;26.10;99.90;;;26.42;62.23;100987.66;5114142;28;20122;-75
2022/09/13 09:48:52;;;;;;;4.90;2.75;;;26.10;99.90;;;26.43;62.13;100989.44;5113673;28;20046;-76
2022/09/13 09:51:22;;;;;;;7.00;2.85;;;26.00;99.90;;;26.42;62.45;100997.69;5113032;28;20114;-76
2022/09/13 09:53:58;;;;;;;5.80;2.57;;;26.00;99.90;;;26.63;62.23;100994.38;5113287;28;20055;-76
2022/09/13 09:56:32;;;;;;;3.72;2.63;;;26.20;99.90;;;26.80;61.41;100995.94;5114254;28;20469;-76
2022/09/13 09:59:02;;;;;;;7.32;2.40;;;26.40;99.90;;;26.74;60.66;100986.38;5113783;28;20047;-76
2022/09/13 10:01:34;;;;;;;8.73;2.87;;;26.40;99.90;;;26.77;60.62;100986.16;5113766;28;20043;-76
2022/09/13 10:04:18;;;;;;;7.35;2.47;;;26.40;99.90;;;26.68;60.95;100975.03;5113917;28;20446;-76
2022/09/13 10:06:47;;;;;;;5.28;2.17;;;26.30;99.90;;;26.89;60.93;100984.44;5113738;28;20427;-76
2022/09/13 10:09:18;;;;;;;4.63;2.42;;;26.40;99.90;;;27.10;59.71;100980.19;5112421;28;20039;-76
2022/09/13 10:11:50;;;;;;;9.85;2.60;;;26.70;99.90;;;26.70;59.23;100978.53;5113446;28;20054;-75
2022/09/13 10:14:38;;;;;;;5.65;2.53;;;26.50;99.90;;;26.53;59.78;100979.69;5113678;27;20048;-75
2022/09/13 10:17:17;;;;;;;5.55;2.88;;;26.20;99.90;;;26.49;59.89;100972.72;5112373;28;20142;-75
2022/09/13 10:19:58;;;;;;;5.25;2.50;;;26.10;99.90;;;26.72;59.89;100974.75;5113421;28;20054;-76
2022/09/13 10:22:28;;;;;;;5.43;2.67;;;26.30;99.90;;;26.92;58.84;100964.34;5113900;28;20123;-76
2022/09/13 10:25:13;;;;;;;7.57;2.90;;;26.50;99.90;;;27.25;59.10;100961.94;5113720;28;20086;-75
2022/09/13 10:27:48;;;;;;;5.45;2.78;;;26.80;99.90;;;27.23;58.14;100953.91;5114122;28;20065;-76
2022/09/13 10:30:32;;;;;;;9.18;2.50;;;26.90;99.90;;;27.36;58.03;100954.78;5113444;28;20039;-75
2022/09/13 10:33:02;;;;;;;5.50;2.75;;;27.00;99.90;;;27.45;57.44;100962.25;5113452;28;20130;-75